sensor_id;sensor_type;location;lat;lon;timestamp;P1;durP1;ratioP1;P2;durP2;ratioP2
28009;SDS011;15334;49.494;8.410;2022-11-15T00:01:59;8.57;;;4.43;;
28009;SDS011;15334;49.494;8.410;2022-11-15T00:04:32;8.02;;;4.13;;
28009;SDS011;15334;49.494;8.410;2022-11-15T00:07:00;7.93;;;4.40;;
28009;SDS011;15334;49.494;8.410;2022-11-15T00:09:28;10.20;;;4.07;;
28009;SDS011;15334;49.494;8.410;2022-11-15T00:11:56;8.73;;;4.15;;
28009;SDS011;15334;49.494;8.410;2022-11-15T00:14:24;10.00;;;4.60;;
28009;SDS011;15334;49.494;8.410;2022-11-15T00:16:52;9.20;;;4.00;;
28009;SDS011;15334;49.494;8.410;2022-11-15T00:19:22;8.82;;;3.92;;
28009;SDS011;15334;49.494;8.410;2022-11-15T00:21:49;9.07;;;4.03;;
28009;SDS011;15334;49.494;8.410;2022-11-15T00:24:18;11.30;;;4.55;;
28009;SDS011;15334;49.494;8.410;2022-11-15T00:26:46;10.27;;;5.03;;
28009;SDS011;15334;49.494;8.410;2022-11-15T00:29:14;10.73;;;5.15;;
28009;SDS011;15334;49.494;8.410;2022-11-15T00:31:42;9.43;;;4.78;;
28009;SDS011;15334;49.494;8.410;2022-11-15T00:34:12;9.48;;;4.75;;
28009;SDS011;15334;49.494;8.410;2022-11-15T00:36:41;10.32;;;5.22;;
28009;SDS011;15334;49.494;8.410;2022-11-15T00:39:09;9.55;;;4.22;;
28009;SDS011;15334;49.494;8.410;2022-11-15T00:41:37;8.32;;;4.50;;
28009;SDS011;15334;49.494;8.410;2022-11-15T00:44:05;8.35;;;4.65;;
28009;SDS011;15334;49.494;8.410;2022-11-15T00:46:35;9.07;;;4.65;;
28009;SDS011;15334;49.494;8.410;2022-11-15T00:49:03;11.48;;;4.35;;
28009;SDS011;15334;49.494;8.410;2022-11-15T00:51:32;7.80;;;3.70;;
28009;SDS011;15334;49.494;8.410;2022-11-15T00:54:01;12.82;;;4.18;;
28009;SDS011;15334;49.494;8.410;2022-11-15T00:56:34;8.70;;;4.20;;
28009;SDS011;15334;49.494;8.410;2022-11-15T00:59:02;7.75;;;3.72;;
28009;SDS011;15334;49.494;8.410;2022-11-15T01:01:30;8.18;;;3.95;;
28009;SDS011;15334;49.494;8.410;2022-11-15T01:03:58;9.98;;;3.83;;
28009;SDS011;15334;49.494;8.410;2022-11-15T01:06:27;7.38;;;4.22;;
28009;SDS011;15334;49.494;8.410;2022-11-15T01:08:58;5.75;;;3.42;;
28009;SDS011;15334;49.494;8.410;2022-11-15T01:11:27;8.60;;;4.28;;
28009;SDS011;15334;49.494;8.410;2022-11-15T01:13:56;9.23;;;4.22;;
28009;SDS011;15334;49.494;8.410;2022-11-15T01:16:24;8.27;;;3.78;;
28009;SDS011;15334;49.494;8.410;2022-11-15T01:18:54;9.38;;;4.30;;
28009;SDS011;15334;49.494;8.410;2022-11-15T01:21:22;8.30;;;4.13;;
28009;SDS011;15334;49.494;8.410;2022-11-15T01:23:53;7.72;;;4.10;;
28009;SDS011;15334;49.494;8.410;2022-11-15T01:26:23;6.55;;;3.75;;
28009;SDS011;15334;49.494;8.410;2022-11-15T01:28:52;9.05;;;4.72;;
28009;SDS011;15334;49.494;8.410;2022-11-15T01:31:21;7.72;;;4.07;;
28009;SDS011;15334;49.494;8.410;2022-11-15T01:33:49;11.20;;;5.32;;
28009;SDS011;15334;49.494;8.410;2022-11-15T01:36:17;11.73;;;5.05;;
28009;SDS011;15334;49.494;8.410;2022-11-15T01:38:52;9.82;;;4.40;;
28009;SDS011;15334;49.494;8.410;2022-11-15T01:41:22;8.45;;;4.03;;
28009;SDS011;15334;49.494;8.410;2022-11-15T01:43:53;9.75;;;5.18;;
28009;SDS011;15334;49.494;8.410;2022-11-15T01:46:23;6.55;;;3.83;;
28009;SDS011;15334;49.494;8.410;2022-11-15T01:49:00;11.15;;;4.15;;
28009;SDS011;15334;49.494;8.410;2022-11-15T01:51:32;6.75;;;3.90;;
28009;SDS011;15334;49.494;8.410;2022-11-15T01:54:03;9.65;;;4.75;;
28009;SDS011;15334;49.494;8.410;2022-11-15T01:56:36;10.40;;;3.78;;
28009;SDS011;15334;49.494;8.410;2022-11-15T01:59:10;11.40;;;3.88;;
28009;SDS011;15334;49.494;8.410;2022-11-15T02:01:39;6.75;;;3.92;;
28009;SDS011;15334;49.494;8.410;2022-11-15T02:04:10;7.45;;;3.95;;
28009;SDS011;15334;49.494;8.410;2022-11-15T02:06:42;6.43;;;3.55;;
28009;SDS011;15334;49.494;8.410;2022-11-15T02:09:11;6.60;;;3.50;;
28009;SDS011;15334;49.494;8.410;2022-11-15T02:11:40;6.20;;;3.75;;
28009;SDS011;15334;49.494;8.410;2022-11-15T02:14:08;6.63;;;3.40;;
28009;SDS011;15334;49.494;8.410;2022-11-15T02:16:42;9.35;;;3.83;;
28009;SDS011;15334;49.494;8.410;2022-11-15T02:19:20;7.97;;;3.45;;
28009;SDS011;15334;49.494;8.410;2022-11-15T02:22:10;5.97;;;3.07;;
28009;SDS011;15334;49.494;8.410;2022-11-15T02:24:59;5.90;;;3.50;;
28009;SDS011;15334;49.494;8.410;2022-11-15T02:27:38;7.18;;;3.78;;
28009;SDS011;15334;49.494;8.410;2022-11-15T02:30:22;7.03;;;3.50;;
28009;SDS011;15334;49.494;8.410;2022-11-15T02:32:52;8.10;;;3.72;;
28009;SDS011;15334;49.494;8.410;2022-11-15T02:35:28;8.10;;;4.30;;
28009;SDS011;15334;49.494;8.410;2022-11-15T02:38:04;7.68;;;3.90;;
28009;SDS011;15334;49.494;8.410;2022-11-15T02:40:38;6.25;;;3.63;;
28009;SDS011;15334;49.494;8.410;2022-11-15T02:43:12;5.53;;;3.03;;
28009;SDS011;15334;49.494;8.410;2022-11-15T02:46:06;11.55;;;4.10;;
28009;SDS011;15334;49.494;8.410;2022-11-15T02:48:40;6.43;;;3.47;;
28009;SDS011;15334;49.494;8.410;2022-11-15T02:51:10;7.88;;;4.30;;
28009;SDS011;15334;49.494;8.410;2022-11-15T02:53:40;9.05;;;3.10;;
28009;SDS011;15334;49.494;8.410;2022-11-15T02:56:08;10.52;;;3.45;;
28009;SDS011;15334;49.494;8.410;2022-11-15T03:01:35;7.80;;;3.58;;
28009;SDS011;15334;49.494;8.410;2022-11-15T03:04:16;7.68;;;3.45;;
28009;SDS011;15334;49.494;8.410;2022-11-15T03:06:57;8.25;;;2.80;;
28009;SDS011;15334;49.494;8.410;2022-11-15T03:09:31;5.85;;;2.92;;
28009;SDS011;15334;49.494;8.410;2022-11-15T03:12:04;7.97;;;3.17;;
28009;SDS011;15334;49.494;8.410;2022-11-15T03:14:37;9.52;;;3.72;;
28009;SDS011;15334;49.494;8.410;2022-11-15T03:17:16;5.93;;;2.95;;
28009;SDS011;15334;49.494;8.410;2022-11-15T03:19:51;7.20;;;3.50;;
28009;SDS011;15334;49.494;8.410;2022-11-15T03:22:25;8.80;;;3.80;;
28009;SDS011;15334;49.494;8.410;2022-11-15T03:24:57;6.65;;;2.95;;
28009;SDS011;15334;49.494;8.410;2022-11-15T03:27:31;5.65;;;3.42;;
28009;SDS011;15334;49.494;8.410;2022-11-15T03:30:04;7.90;;;3.47;;
28009;SDS011;15334;49.494;8.410;2022-11-15T03:32:36;10.18;;;2.85;;
28009;SDS011;15334;49.494;8.410;2022-11-15T03:35:09;5.22;;;3.05;;
28009;SDS011;15334;49.494;8.410;2022-11-15T03:37:42;5.47;;;3.10;;
28009;SDS011;15334;49.494;8.410;2022-11-15T03:40:15;5.50;;;3.38;;
28009;SDS011;15334;49.494;8.410;2022-11-15T03:42:46;10.52;;;3.45;;
28009;SDS011;15334;49.494;8.410;2022-11-15T03:45:22;8.52;;;3.60;;
28009;SDS011;15334;49.494;8.410;2022-11-15T03:47:58;5.10;;;2.83;;
28009;SDS011;15334;49.494;8.410;2022-11-15T03:50:30;8.20;;;3.92;;
28009;SDS011;15334;49.494;8.410;2022-11-15T03:52:59;5.85;;;2.85;;
28009;SDS011;15334;49.494;8.410;2022-11-15T03:55:27;5.25;;;3.15;;
28009;SDS011;15334;49.494;8.410;2022-11-15T03:57:56;12.10;;;3.35;;
28009;SDS011;15334;49.494;8.410;2022-11-15T04:00:26;7.22;;;3.10;;
28009;SDS011;15334;49.494;8.410;2022-11-15T04:02:55;5.95;;;2.85;;
28009;SDS011;15334;49.494;8.410;2022-11-15T04:05:25;8.45;;;3.15;;
28009;SDS011;15334;49.494;8.410;2022-11-15T04:07:53;5.18;;;2.53;;
28009;SDS011;15334;49.494;8.410;2022-11-15T04:10:21;6.18;;;2.72;;
28009;SDS011;15334;49.494;8.410;2022-11-15T04:12:49;8.68;;;3.03;;
28009;SDS011;15334;49.494;8.410;2022-11-15T04:15:18;6.18;;;2.85;;
28009;SDS011;15334;49.494;8.410;2022-11-15T04:17:48;8.23;;;2.90;;
28009;SDS011;15334;49.494;8.410;2022-11-15T04:20:17;5.68;;;3.20;;
28009;SDS011;15334;49.494;8.410;2022-11-15T04:23:07;6.43;;;3.15;;
28009;SDS011;15334;49.494;8.410;2022-11-15T04:25:56;5.38;;;2.75;;
28009;SDS011;15334;49.494;8.410;2022-11-15T04:28:26;7.20;;;3.20;;
28009;SDS011;15334;49.494;8.410;2022-11-15T04:30:54;7.38;;;2.88;;
28009;SDS011;15334;49.494;8.410;2022-11-15T04:33:22;7.07;;;2.67;;
28009;SDS011;15334;49.494;8.410;2022-11-15T04:35:50;8.20;;;3.08;;
28009;SDS011;15334;49.494;8.410;2022-11-15T04:38:34;8.00;;;3.17;;
28009;SDS011;15334;49.494;8.410;2022-11-15T04:41:02;5.60;;;3.10;;
28009;SDS011;15334;49.494;8.410;2022-11-15T04:43:30;6.15;;;3.13;;
28009;SDS011;15334;49.494;8.410;2022-11-15T04:45:59;5.78;;;2.60;;
28009;SDS011;15334;49.494;8.410;2022-11-15T04:48:27;5.57;;;3.00;;
28009;SDS011;15334;49.494;8.410;2022-11-15T04:50:55;5.65;;;2.67;;
28009;SDS011;15334;49.494;8.410;2022-11-15T04:53:23;4.63;;;2.72;;
28009;SDS011;15334;49.494;8.410;2022-11-15T04:55:52;5.05;;;2.60;;
28009;SDS011;15334;49.494;8.410;2022-11-15T04:58:20;4.72;;;2.60;;
28009;SDS011;15334;49.494;8.410;2022-11-15T05:00:48;7.68;;;3.40;;
28009;SDS011;15334;49.494;8.410;2022-11-15T05:03:16;7.75;;;3.42;;
28009;SDS011;15334;49.494;8.410;2022-11-15T05:06:01;7.28;;;3.13;;
28009;SDS011;15334;49.494;8.410;2022-11-15T05:08:30;6.53;;;3.60;;
28009;SDS011;15334;49.494;8.410;2022-11-15T05:10:59;7.85;;;3.17;;
28009;SDS011;15334;49.494;8.410;2022-11-15T05:13:27;9.13;;;3.60;;
28009;SDS011;15334;49.494;8.410;2022-11-15T05:15:55;6.18;;;2.63;;
28009;SDS011;15334;49.494;8.410;2022-11-15T05:18:23;4.22;;;2.42;;
28009;SDS011;15334;49.494;8.410;2022-11-15T05:20:51;6.90;;;2.95;;
28009;SDS011;15334;49.494;8.410;2022-11-15T05:23:19;5.85;;;2.72;;
28009;SDS011;15334;49.494;8.410;2022-11-15T05:25:47;5.35;;;3.00;;
28009;SDS011;15334;49.494;8.410;2022-11-15T05:28:17;5.75;;;3.28;;
28009;SDS011;15334;49.494;8.410;2022-11-15T05:30:50;6.78;;;3.25;;
28009;SDS011;15334;49.494;8.410;2022-11-15T05:33:18;7.97;;;3.10;;
28009;SDS011;15334;49.494;8.410;2022-11-15T05:35:48;6.63;;;3.60;;
28009;SDS011;15334;49.494;8.410;2022-11-15T05:38:22;9.23;;;4.32;;
28009;SDS011;15334;49.494;8.410;2022-11-15T05:40:51;8.00;;;4.10;;
28009;SDS011;15334;49.494;8.410;2022-11-15T05:43:21;13.80;;;3.60;;
28009;SDS011;15334;49.494;8.410;2022-11-15T05:45:49;6.82;;;3.22;;
28009;SDS011;15334;49.494;8.410;2022-11-15T05:48:17;13.25;;;4.35;;
28009;SDS011;15334;49.494;8.410;2022-11-15T05:50:46;8.20;;;3.17;;
28009;SDS011;15334;49.494;8.410;2022-11-15T05:53:15;6.45;;;3.53;;
28009;SDS011;15334;49.494;8.410;2022-11-15T05:55:46;7.45;;;3.65;;
28009;SDS011;15334;49.494;8.410;2022-11-15T05:58:16;5.68;;;3.28;;
28009;SDS011;15334;49.494;8.410;2022-11-15T06:00:46;6.75;;;3.10;;
28009;SDS011;15334;49.494;8.410;2022-11-15T06:03:14;7.43;;;3.13;;
28009;SDS011;15334;49.494;8.410;2022-11-15T06:05:42;6.95;;;3.30;;
28009;SDS011;15334;49.494;8.410;2022-11-15T06:08:10;7.70;;;3.50;;
28009;SDS011;15334;49.494;8.410;2022-11-15T06:10:38;8.65;;;3.58;;
28009;SDS011;15334;49.494;8.410;2022-11-15T06:13:06;7.93;;;3.30;;
28009;SDS011;15334;49.494;8.410;2022-11-15T06:15:34;10.82;;;4.10;;
28009;SDS011;15334;49.494;8.410;2022-11-15T06:18:04;6.25;;;3.35;;
28009;SDS011;15334;49.494;8.410;2022-11-15T06:20:32;6.50;;;2.83;;
28009;SDS011;15334;49.494;8.410;2022-11-15T06:23:01;6.38;;;3.10;;
28009;SDS011;15334;49.494;8.410;2022-11-15T06:25:31;7.05;;;3.38;;
28009;SDS011;15334;49.494;8.410;2022-11-15T06:27:59;9.23;;;3.53;;
28009;SDS011;15334;49.494;8.410;2022-11-15T06:30:27;7.05;;;3.65;;
28009;SDS011;15334;49.494;8.410;2022-11-15T06:32:59;5.63;;;3.00;;
28009;SDS011;15334;49.494;8.410;2022-11-15T06:35:30;8.23;;;3.45;;
28009;SDS011;15334;49.494;8.410;2022-11-15T06:38:03;9.33;;;3.67;;
28009;SDS011;15334;49.494;8.410;2022-11-15T06:40:33;9.85;;;3.83;;
28009;SDS011;15334;49.494;8.410;2022-11-15T06:43:02;7.28;;;3.22;;
28009;SDS011;15334;49.494;8.410;2022-11-15T06:45:31;7.60;;;4.30;;
28009;SDS011;15334;49.494;8.410;2022-11-15T06:47:59;9.70;;;3.55;;
28009;SDS011;15334;49.494;8.410;2022-11-15T06:50:27;9.30;;;3.80;;
28009;SDS011;15334;49.494;8.410;2022-11-15T06:53:00;6.95;;;4.22;;
28009;SDS011;15334;49.494;8.410;2022-11-15T06:55:31;6.68;;;3.30;;
28009;SDS011;15334;49.494;8.410;2022-11-15T06:57:59;7.35;;;3.60;;
28009;SDS011;15334;49.494;8.410;2022-11-15T07:00:27;6.82;;;3.47;;
28009;SDS011;15334;49.494;8.410;2022-11-15T07:02:56;8.70;;;3.58;;
28009;SDS011;15334;49.494;8.410;2022-11-15T07:07:57;8.82;;;4.07;;
28009;SDS011;15334;49.494;8.410;2022-11-15T07:10:27;6.88;;;3.58;;
28009;SDS011;15334;49.494;8.410;2022-11-15T07:12:55;7.80;;;3.30;;
28009;SDS011;15334;49.494;8.410;2022-11-15T07:15:25;8.88;;;3.83;;
28009;SDS011;15334;49.494;8.410;2022-11-15T07:17:53;7.60;;;3.53;;
28009;SDS011;15334;49.494;8.410;2022-11-15T07:20:21;7.30;;;3.33;;
28009;SDS011;15334;49.494;8.410;2022-11-15T07:22:50;6.90;;;3.05;;
28009;SDS011;15334;49.494;8.410;2022-11-15T07:25:18;6.28;;;3.33;;
28009;SDS011;15334;49.494;8.410;2022-11-15T07:27:53;6.88;;;3.15;;
28009;SDS011;15334;49.494;8.410;2022-11-15T07:30:22;5.93;;;3.55;;
28009;SDS011;15334;49.494;8.410;2022-11-15T07:32:52;9.75;;;4.25;;
28009;SDS011;15334;49.494;8.410;2022-11-15T07:35:20;12.27;;;4.28;;
28009;SDS011;15334;49.494;8.410;2022-11-15T07:37:57;10.50;;;4.15;;
28009;SDS011;15334;49.494;8.410;2022-11-15T07:40:28;9.38;;;4.15;;
28009;SDS011;15334;49.494;8.410;2022-11-15T07:43:01;7.35;;;3.72;;
28009;SDS011;15334;49.494;8.410;2022-11-15T07:45:45;8.18;;;3.60;;
28009;SDS011;15334;49.494;8.410;2022-11-15T07:48:28;7.72;;;3.60;;
28009;SDS011;15334;49.494;8.410;2022-11-15T07:51:10;13.35;;;4.32;;
28009;SDS011;15334;49.494;8.410;2022-11-15T07:53:41;5.93;;;3.15;;
28009;SDS011;15334;49.494;8.410;2022-11-15T07:56:10;8.88;;;3.88;;
28009;SDS011;15334;49.494;8.410;2022-11-15T07:58:39;7.95;;;4.30;;
28009;SDS011;15334;49.494;8.410;2022-11-15T08:01:16;7.53;;;3.45;;
28009;SDS011;15334;49.494;8.410;2022-11-15T08:03:45;7.45;;;3.47;;
28009;SDS011;15334;49.494;8.410;2022-11-15T08:06:13;8.02;;;3.67;;
28009;SDS011;15334;49.494;8.410;2022-11-15T08:08:42;6.55;;;3.25;;
28009;SDS011;15334;49.494;8.410;2022-11-15T08:11:10;8.77;;;4.07;;
28009;SDS011;15334;49.494;8.410;2022-11-15T08:13:38;5.88;;;3.25;;
28009;SDS011;15334;49.494;8.410;2022-11-15T08:16:09;5.40;;;3.28;;
28009;SDS011;15334;49.494;8.410;2022-11-15T08:18:38;8.43;;;3.70;;
28009;SDS011;15334;49.494;8.410;2022-11-15T08:21:11;7.68;;;3.72;;
28009;SDS011;15334;49.494;8.410;2022-11-15T08:23:46;7.50;;;3.33;;
28009;SDS011;15334;49.494;8.410;2022-11-15T08:26:42;9.10;;;4.45;;
28009;SDS011;15334;49.494;8.410;2022-11-15T08:29:27;7.25;;;3.80;;
28009;SDS011;15334;49.494;8.410;2022-11-15T08:31:59;8.90;;;4.18;;
28009;SDS011;15334;49.494;8.410;2022-11-15T08:34:31;9.93;;;4.78;;
28009;SDS011;15334;49.494;8.410;2022-11-15T08:37:10;9.45;;;4.20;;
28009;SDS011;15334;49.494;8.410;2022-11-15T08:39:39;10.27;;;3.95;;
28009;SDS011;15334;49.494;8.410;2022-11-15T08:42:12;10.48;;;3.67;;
28009;SDS011;15334;49.494;8.410;2022-11-15T08:44:55;13.90;;;4.60;;
28009;SDS011;15334;49.494;8.410;2022-11-15T08:47:34;9.23;;;3.90;;
28009;SDS011;15334;49.494;8.410;2022-11-15T08:50:06;11.20;;;3.92;;
28009;SDS011;15334;49.494;8.410;2022-11-15T08:52:35;18.02;;;5.32;;
28009;SDS011;15334;49.494;8.410;2022-11-15T08:55:08;15.43;;;5.32;;
28009;SDS011;15334;49.494;8.410;2022-11-15T08:57:36;20.77;;;5.75;;
28009;SDS011;15334;49.494;8.410;2022-11-15T09:00:06;15.90;;;5.38;;
28009;SDS011;15334;49.494;8.410;2022-11-15T09:02:40;13.88;;;5.15;;
28009;SDS011;15334;49.494;8.410;2022-11-15T09:05:12;11.85;;;4.07;;
28009;SDS011;15334;49.494;8.410;2022-11-15T09:07:42;12.13;;;4.80;;
28009;SDS011;15334;49.494;8.410;2022-11-15T09:10:12;13.10;;;5.15;;
28009;SDS011;15334;49.494;8.410;2022-11-15T09:12:41;13.48;;;6.28;;
28009;SDS011;15334;49.494;8.410;2022-11-15T09:15:12;12.32;;;4.97;;
28009;SDS011;15334;49.494;8.410;2022-11-15T09:21:02;8.43;;;4.35;;
28009;SDS011;15334;49.494;8.410;2022-11-15T09:23:30;10.57;;;5.22;;
28009;SDS011;15334;49.494;8.410;2022-11-15T09:26:21;13.00;;;4.93;;
28009;SDS011;15334;49.494;8.410;2022-11-15T09:29:23;10.15;;;5.53;;
28009;SDS011;15334;49.494;8.410;2022-11-15T09:32:08;12.93;;;5.03;;
28009;SDS011;15334;49.494;8.410;2022-11-15T09:34:37;7.85;;;4.38;;
28009;SDS011;15334;49.494;8.410;2022-11-15T09:37:32;10.93;;;5.03;;
28009;SDS011;15334;49.494;8.410;2022-11-15T09:40:00;13.07;;;4.68;;
28009;SDS011;15334;49.494;8.410;2022-11-15T09:42:37;9.65;;;4.68;;
28009;SDS011;15334;49.494;8.410;2022-11-15T09:45:17;10.85;;;4.30;;
28009;SDS011;15334;49.494;8.410;2022-11-15T09:48:02;8.15;;;3.80;;
28009;SDS011;15334;49.494;8.410;2022-11-15T09:50:41;8.30;;;4.57;;
28009;SDS011;15334;49.494;8.410;2022-11-15T09:53:14;8.30;;;3.90;;
28009;SDS011;15334;49.494;8.410;2022-11-15T09:56:15;7.00;;;3.60;;
28009;SDS011;15334;49.494;8.410;2022-11-15T09:58:49;8.02;;;3.38;;
28009;SDS011;15334;49.494;8.410;2022-11-15T10:01:30;8.55;;;3.42;;
28009;SDS011;15334;49.494;8.410;2022-11-15T10:04:06;9.45;;;3.78;;
28009;SDS011;15334;49.494;8.410;2022-11-15T10:06:40;6.55;;;3.75;;
28009;SDS011;15334;49.494;8.410;2022-11-15T10:09:15;7.30;;;3.83;;
28009;SDS011;15334;49.494;8.410;2022-11-15T10:11:49;8.18;;;3.72;;
28009;SDS011;15334;49.494;8.410;2022-11-15T10:14:22;6.25;;;3.25;;
28009;SDS011;15334;49.494;8.410;2022-11-15T10:16:59;7.47;;;4.10;;
28009;SDS011;15334;49.494;8.410;2022-11-15T10:19:54;6.95;;;3.40;;
28009;SDS011;15334;49.494;8.410;2022-11-15T10:22:34;8.95;;;4.15;;
28009;SDS011;15334;49.494;8.410;2022-11-15T10:25:14;9.00;;;3.58;;
28009;SDS011;15334;49.494;8.410;2022-11-15T10:27:47;6.97;;;3.22;;
28009;SDS011;15334;49.494;8.410;2022-11-15T10:30:22;8.23;;;3.42;;
28009;SDS011;15334;49.494;8.410;2022-11-15T10:32:57;8.23;;;3.40;;
28009;SDS011;15334;49.494;8.410;2022-11-15T10:35:29;12.10;;;3.72;;
28009;SDS011;15334;49.494;8.410;2022-11-15T10:38:04;6.03;;;3.80;;
28009;SDS011;15334;49.494;8.410;2022-11-15T10:40:34;6.68;;;3.78;;
28009;SDS011;15334;49.494;8.410;2022-11-15T10:43:12;6.18;;;3.55;;
28009;SDS011;15334;49.494;8.410;2022-11-15T10:45:43;7.30;;;3.67;;
28009;SDS011;15334;49.494;8.410;2022-11-15T10:48:22;6.63;;;3.50;;
28009;SDS011;15334;49.494;8.410;2022-11-15T10:50:51;5.90;;;2.97;;
28009;SDS011;15334;49.494;8.410;2022-11-15T10:53:27;7.63;;;3.15;;
28009;SDS011;15334;49.494;8.410;2022-11-15T10:55:59;7.38;;;3.40;;
28009;SDS011;15334;49.494;8.410;2022-11-15T10:58:37;8.50;;;3.03;;
28009;SDS011;15334;49.494;8.410;2022-11-15T11:01:10;5.95;;;3.08;;
28009;SDS011;15334;49.494;8.410;2022-11-15T11:03:41;6.10;;;2.80;;
28009;SDS011;15334;49.494;8.410;2022-11-15T11:06:13;5.70;;;3.10;;
28009;SDS011;15334;49.494;8.410;2022-11-15T11:08:56;4.78;;;2.60;;
28009;SDS011;15334;49.494;8.410;2022-11-15T11:11:26;7.25;;;3.80;;
28009;SDS011;15334;49.494;8.410;2022-11-15T11:14:12;6.97;;;3.10;;
28009;SDS011;15334;49.494;8.410;2022-11-15T11:16:47;6.03;;;3.65;;
28009;SDS011;15334;49.494;8.410;2022-11-15T11:22:16;11.32;;;3.97;;
28009;SDS011;15334;49.494;8.410;2022-11-15T11:24:49;8.18;;;3.97;;
28009;SDS011;15334;49.494;8.410;2022-11-15T11:27:28;6.28;;;3.58;;
28009;SDS011;15334;49.494;8.410;2022-11-15T11:30:06;7.35;;;2.80;;
28009;SDS011;15334;49.494;8.410;2022-11-15T11:32:43;6.43;;;2.92;;
28009;SDS011;15334;49.494;8.410;2022-11-15T11:35:24;12.20;;;3.75;;
28009;SDS011;15334;49.494;8.410;2022-11-15T11:38:06;6.50;;;2.75;;
28009;SDS011;15334;49.494;8.410;2022-11-15T11:40:51;5.97;;;2.63;;
28009;SDS011;15334;49.494;8.410;2022-11-15T11:43:30;7.03;;;3.10;;
28009;SDS011;15334;49.494;8.410;2022-11-15T11:46:13;5.28;;;2.60;;
28009;SDS011;15334;49.494;8.410;2022-11-15T11:49:01;6.78;;;2.90;;
28009;SDS011;15334;49.494;8.410;2022-11-15T11:51:36;5.57;;;2.42;;
28009;SDS011;15334;49.494;8.410;2022-11-15T11:54:10;6.55;;;2.63;;
28009;SDS011;15334;49.494;8.410;2022-11-15T11:56:41;4.55;;;2.25;;
28009;SDS011;15334;49.494;8.410;2022-11-15T11:59:12;4.72;;;2.70;;
28009;SDS011;15334;49.494;8.410;2022-11-15T12:01:48;5.35;;;2.33;;
28009;SDS011;15334;49.494;8.410;2022-11-15T12:04:20;5.75;;;2.60;;
28009;SDS011;15334;49.494;8.410;2022-11-15T12:06:55;5.35;;;2.65;;
28009;SDS011;15334;49.494;8.410;2022-11-15T12:09:30;5.70;;;2.30;;
28009;SDS011;15334;49.494;8.410;2022-11-15T12:12:05;6.18;;;2.25;;
28009;SDS011;15334;49.494;8.410;2022-11-15T12:14:45;4.95;;;2.42;;
28009;SDS011;15334;49.494;8.410;2022-11-15T12:17:16;4.47;;;2.53;;
28009;SDS011;15334;49.494;8.410;2022-11-15T12:19:50;4.32;;;2.50;;
28009;SDS011;15334;49.494;8.410;2022-11-15T12:22:20;4.07;;;2.15;;
28009;SDS011;15334;49.494;8.410;2022-11-15T12:24:51;6.25;;;2.20;;
28009;SDS011;15334;49.494;8.410;2022-11-15T12:27:26;6.28;;;2.22;;
28009;SDS011;15334;49.494;8.410;2022-11-15T12:30:02;6.28;;;2.35;;
28009;SDS011;15334;49.494;8.410;2022-11-15T12:32:37;4.97;;;2.20;;
28009;SDS011;15334;49.494;8.410;2022-11-15T12:35:21;6.53;;;2.17;;
28009;SDS011;15334;49.494;8.410;2022-11-15T12:37:54;5.13;;;2.17;;
28009;SDS011;15334;49.494;8.410;2022-11-15T12:40:33;6.60;;;2.30;;
28009;SDS011;15334;49.494;8.410;2022-11-15T12:46:05;4.22;;;2.10;;
28009;SDS011;15334;49.494;8.410;2022-11-15T12:48:48;4.80;;;2.10;;
28009;SDS011;15334;49.494;8.410;2022-11-15T12:57:29;3.78;;;2.03;;
28009;SDS011;15334;49.494;8.410;2022-11-15T13:00:05;5.57;;;2.85;;
28009;SDS011;15334;49.494;8.410;2022-11-15T13:03:21;5.47;;;2.55;;
28009;SDS011;15334;49.494;8.410;2022-11-15T13:05:55;4.90;;;2.00;;
28009;SDS011;15334;49.494;8.410;2022-11-15T13:08:36;4.32;;;2.28;;
28009;SDS011;15334;49.494;8.410;2022-11-15T13:22:59;6.03;;;2.10;;
28009;SDS011;15334;49.494;8.410;2022-11-15T13:28:33;4.60;;;3.03;;
28009;SDS011;15334;49.494;8.410;2022-11-15T13:31:03;4.72;;;2.53;;
28009;SDS011;15334;49.494;8.410;2022-11-15T13:33:46;3.35;;;2.03;;
28009;SDS011;15334;49.494;8.410;2022-11-15T13:36:15;10.10;;;2.85;;
28009;SDS011;15334;49.494;8.410;2022-11-15T13:38:53;10.30;;;2.22;;
28009;SDS011;15334;49.494;8.410;2022-11-15T13:41:28;5.30;;;2.33;;
28009;SDS011;15334;49.494;8.410;2022-11-15T13:43:58;3.90;;;2.28;;
28009;SDS011;15334;49.494;8.410;2022-11-15T13:46:27;4.03;;;2.22;;
28009;SDS011;15334;49.494;8.410;2022-11-15T13:49:00;8.68;;;2.38;;
28009;SDS011;15334;49.494;8.410;2022-11-15T13:51:32;6.53;;;2.25;;
28009;SDS011;15334;49.494;8.410;2022-11-15T13:54:07;4.13;;;2.20;;
28009;SDS011;15334;49.494;8.410;2022-11-15T13:56:44;4.47;;;2.38;;
28009;SDS011;15334;49.494;8.410;2022-11-15T14:01:44;5.20;;;2.45;;
28009;SDS011;15334;49.494;8.410;2022-11-15T14:04:13;7.80;;;2.45;;
28009;SDS011;15334;49.494;8.410;2022-11-15T14:06:47;3.80;;;2.25;;
28009;SDS011;15334;49.494;8.410;2022-11-15T14:12:29;3.75;;;1.90;;
28009;SDS011;15334;49.494;8.410;2022-11-15T14:14:59;4.15;;;2.13;;
28009;SDS011;15334;49.494;8.410;2022-11-15T14:17:42;3.83;;;2.13;;
28009;SDS011;15334;49.494;8.410;2022-11-15T14:20:34;3.83;;;2.10;;
28009;SDS011;15334;49.494;8.410;2022-11-15T14:23:04;4.38;;;2.05;;
28009;SDS011;15334;49.494;8.410;2022-11-15T14:25:51;4.07;;;1.90;;
28009;SDS011;15334;49.494;8.410;2022-11-15T14:28:32;4.13;;;1.90;;
28009;SDS011;15334;49.494;8.410;2022-11-15T14:31:06;4.93;;;2.00;;
28009;SDS011;15334;49.494;8.410;2022-11-15T14:33:38;6.28;;;2.10;;
28009;SDS011;15334;49.494;8.410;2022-11-15T14:36:10;3.70;;;1.95;;
28009;SDS011;15334;49.494;8.410;2022-11-15T14:41:10;4.40;;;2.03;;
28009;SDS011;15334;49.494;8.410;2022-11-15T14:43:47;2.63;;;1.80;;
28009;SDS011;15334;49.494;8.410;2022-11-15T14:46:15;5.55;;;2.10;;
28009;SDS011;15334;49.494;8.410;2022-11-15T14:48:43;6.10;;;2.15;;
28009;SDS011;15334;49.494;8.410;2022-11-15T14:51:17;4.57;;;1.73;;
28009;SDS011;15334;49.494;8.410;2022-11-15T14:53:47;4.53;;;2.38;;
28009;SDS011;15334;49.494;8.410;2022-11-15T14:56:15;5.15;;;2.67;;
28009;SDS011;15334;49.494;8.410;2022-11-15T14:58:43;4.28;;;2.40;;
28009;SDS011;15334;49.494;8.410;2022-11-15T15:01:14;7.03;;;2.45;;
28009;SDS011;15334;49.494;8.410;2022-11-15T15:03:47;5.30;;;2.50;;
28009;SDS011;15334;49.494;8.410;2022-11-15T15:06:15;5.22;;;2.38;;
28009;SDS011;15334;49.494;8.410;2022-11-15T15:08:46;6.97;;;2.30;;
28009;SDS011;15334;49.494;8.410;2022-11-15T15:11:14;4.68;;;1.85;;
28009;SDS011;15334;49.494;8.410;2022-11-15T15:13:46;4.45;;;2.08;;
28009;SDS011;15334;49.494;8.410;2022-11-15T15:16:16;3.47;;;1.90;;
28009;SDS011;15334;49.494;8.410;2022-11-15T15:18:44;3.40;;;1.75;;
28009;SDS011;15334;49.494;8.410;2022-11-15T15:21:16;5.40;;;2.00;;
28009;SDS011;15334;49.494;8.410;2022-11-15T15:23:47;3.58;;;1.80;;
28009;SDS011;15334;49.494;8.410;2022-11-15T15:26:16;9.95;;;2.97;;
28009;SDS011;15334;49.494;8.410;2022-11-15T15:28:45;6.30;;;2.10;;
28009;SDS011;15334;49.494;8.410;2022-11-15T15:31:16;4.90;;;2.53;;
28009;SDS011;15334;49.494;8.410;2022-11-15T15:33:44;5.30;;;2.60;;
28009;SDS011;15334;49.494;8.410;2022-11-15T15:36:12;4.55;;;2.28;;
28009;SDS011;15334;49.494;8.410;2022-11-15T15:38:44;5.85;;;2.72;;
28009;SDS011;15334;49.494;8.410;2022-11-15T15:41:14;6.55;;;2.83;;
28009;SDS011;15334;49.494;8.410;2022-11-15T15:43:43;5.43;;;2.80;;
28009;SDS011;15334;49.494;8.410;2022-11-15T15:46:12;5.75;;;2.50;;
28009;SDS011;15334;49.494;8.410;2022-11-15T15:48:43;5.30;;;2.42;;
28009;SDS011;15334;49.494;8.410;2022-11-15T15:51:14;5.88;;;2.63;;
28009;SDS011;15334;49.494;8.410;2022-11-15T15:53:46;5.85;;;2.70;;
28009;SDS011;15334;49.494;8.410;2022-11-15T15:56:29;6.22;;;2.42;;
28009;SDS011;15334;49.494;8.410;2022-11-15T15:58:57;5.47;;;2.50;;
28009;SDS011;15334;49.494;8.410;2022-11-15T16:01:25;9.50;;;3.22;;
28009;SDS011;15334;49.494;8.410;2022-11-15T16:03:54;7.20;;;2.60;;